Time;durP1;ratioP1;P1;durP2;ratioP2;P2;SDS_P1;SDS_P2;PMS_P1;PMS_P2;Temp;Humidity;BMP_temperature;BMP_pressure;BME280_temperature;BME280_humidity;BME280_pressure;Samples;Min_cycle;Max_cycle;Signal;HPM_P1;HPM_P2
2024/03/01 00:01:56;;;;;;;29.95;9.65;;;;;;;6.49;100.00;100227.34;6301846;28;20045;-78
2024/03/01 00:04:57;;;;;;;26.02;9.50;;;;;;;6.46;100.00;100220.50;6301388;28;20045;-78
2024/03/01 00:08:00;;;;;;;25.80;9.45;;;;;;;6.34;100.00;100210.63;6301482;28;20349;-78
2024/03/01 00:11:01;;;;;;;22.38;8.50;;;;;;;6.27;100.00;100209.22;6300943;28;20421;-77
2024/03/01 00:14:03;;;;;;;24.70;8.65;;;;;;;6.16;100.00;100216.66;6301395;28;20052;-78
2024/03/01 00:17:04;;;;;;;22.95;8.38;;;;;;;6.08;100.00;100220.41;6300895;28;20185;-78
2024/03/01 00:20:07;;;;;;;25.80;9.32;;;;;;;5.98;100.00;100215.69;6301000;28;20044;-78
2024/03/01 00:23:09;;;;;;;21.02;8.77;;;;;;;5.91;100.00;100214.22;6300997;28;20060;-78
2024/03/01 00:26:11;;;;;;;22.25;8.35;;;;;;;5.83;100.00;100210.19;6301364;28;20053;-78
2024/03/01 00:29:12;;;;;;;24.98;10.10;;;;;;;5.76;100.00;100203.50;6300531;28;20337;-77
2024/03/01 00:32:14;;;;;;;23.23;8.68;;;;;;;5.70;100.00;100210.75;6301352;28;20056;-78
2024/03/01 00:35:16;;;;;;;21.70;8.35;;;;;;;5.64;100.00;100211.88;6300869;28;20045;-78
2024/03/01 00:38:18;;;;;;;32.03;9.20;;;;;;;5.57;100.00;100207.81;6287085;28;20065;-77
2024/03/01 00:41:20;;;;;;;24.50;9.23;;;;;;;5.50;100.00;100204.63;6292605;28;20052;-78
2024/03/01 00:44:22;;;;;;;20.98;9.00;;;;;;;5.43;100.00;100197.09;6283809;28;20056;-78
2024/03/01 00:47:23;;;;;;;22.58;9.25;;;;;;;5.76;100.00;100195.69;6284254;28;20567;-78
2024/03/01 00:50:24;;;;;;;24.98;9.25;;;;;;;5.71;100.00;100188.97;6275307;28;20052;-78
2024/03/01 00:53:27;;;;;;;33.30;10.27;;;;;;;5.40;100.00;100181.59;6275992;28;20049;-77
2024/03/01 00:56:28;;;;;;;30.42;10.45;;;;;;;5.39;100.00;100179.91;6275445;28;20059;-78
2024/03/01 00:59:29;;;;;;;22.65;9.40;;;;;;;5.37;100.00;100179.97;6265726;28;20045;-78
2024/03/01 01:02:31;;;;;;;25.52;8.93;;;;;;;5.33;100.00;100181.00;6251108;28;20438;-78
2024/03/01 01:05:32;;;;;;;23.25;9.13;;;;;;;5.31;100.00;100183.69;6250990;28;20046;-78
2024/03/01 01:08:35;;;;;;;29.38;10.70;;;;;;;5.24;100.00;100168.34;6256170;28;20428;-78
2024/03/01 01:11:36;;;;;;;31.65;10.63;;;;;;;5.20;100.00;100162.41;6287411;28;20043;-78
2024/03/01 01:14:38;;;;;;;28.50;10.13;;;;;;;5.14;100.00;100167.03;6300156;28;20123;-76
2024/03/01 01:17:39;;;;;;;26.35;10.10;;;;;;;5.14;100.00;100167.88;6297134;28;20056;-76
2024/03/01 01:20:40;;;;;;;20.60;8.63;;;;;;;5.14;100.00;100165.28;6286829;28;20041;-77
2024/03/01 01:23:43;;;;;;;26.77;9.75;;;;;;;5.17;100.00;100170.34;6291708;28;20052;-76
2024/03/01 01:26:44;;;;;;;29.70;10.88;;;;;;;5.11;100.00;100161.94;6299032;28;20048;-76
2024/03/01 01:29:46;;;;;;;26.45;10.30;;;;;;;5.15;100.00;100163.53;6299596;28;20045;-76
2024/03/01 01:32:47;;;;;;;30.33;10.75;;;;;;;5.12;100.00;100161.03;6300161;28;20047;-76
2024/03/01 01:35:48;;;;;;;33.60;9.77;;;;;;;5.16;100.00;100152.19;6299856;28;20048;-78
2024/03/01 01:38:51;;;;;;;30.17;10.27;;;;;;;5.17;100.00;100140.84;6299472;28;20356;-76
2024/03/01 01:41:52;;;;;;;28.50;10.93;;;;;;;5.14;100.00;100138.38;6300119;28;20040;-78
2024/03/01 01:44:54;;;;;;;28.33;10.38;;;;;;;5.19;100.00;100145.09;6299640;28;20051;-78
2024/03/01 01:47:56;;;;;;;27.35;10.73;;;;;;;5.09;100.00;100134.22;6299976;28;20052;-76
2024/03/01 01:50:58;;;;;;;29.38;11.50;;;;;;;5.06;100.00;100136.94;6299283;28;20048;-76
2024/03/01 01:54:01;;;;;;;26.40;10.85;;;;;;;5.11;100.00;100138.50;6295626;22;20053;-75
2024/03/01 01:57:02;;;;;;;29.92;10.70;;;;;;;5.13;100.00;100134.06;6250106;28;20045;-77
2024/03/01 02:00:06;;;;;;;29.23;10.55;;;;;;;5.14;100.00;100128.81;6249848;28;20050;-77
2024/03/01 02:03:08;;;;;;;28.45;10.70;;;;;;;5.16;100.00;100121.78;6256190;28;20434;-77
2024/03/01 02:06:10;;;;;;;29.70;10.18;;;;;;;5.13;100.00;100115.84;6274783;28;20049;-77
2024/03/01 02:09:17;;;;;;;33.58;10.10;;;;;;;5.12;100.00;100121.97;6274297;28;20048;-77
2024/03/01 02:12:19;;;;;;;30.25;10.90;;;;;;;5.11;100.00;100115.06;6274916;28;20445;-74
2024/03/01 02:15:20;;;;;;;30.35;10.75;;;;;;;5.07;100.00;100119.53;6274490;28;20135;-76
2024/03/01 02:18:22;;;;;;;27.13;10.35;;;;;;;5.07;100.00;100116.94;6274319;28;20052;-76
2024/03/01 02:21:29;;;;;;;38.08;11.77;;;;;;;5.00;100.00;100118.97;6274708;28;20072;-75
2024/03/01 02:24:31;;;;;;;25.77;9.88;;;;;;;5.02;100.00;100108.47;6274126;28;20534;-75
2024/03/01 02:27:33;;;;;;;31.60;11.10;;;;;;;4.96;100.00;100096.56;6274558;28;20435;-75
2024/03/01 02:30:34;;;;;;;28.52;11.48;;;;;;;4.94;100.00;100097.53;6273925;28;20049;-75
2024/03/01 02:33:35;;;;;;;28.60;10.73;;;;;;;4.91;100.00;100101.09;6274416;28;20060;-75
2024/03/01 02:36:37;;;;;;;27.30;10.27;;;;;;;4.90;100.00;100093.34;6274237;28;20044;-76
2024/03/01 02:39:39;;;;;;;28.88;10.68;;;;;;;4.88;100.00;100098.63;6281214;28;20371;-76
2024/03/01 02:42:41;;;;;;;29.45;10.65;;;;;;;4.83;100.00;100091.00;6283060;28;20442;-76
2024/03/01 02:45:42;;;;;;;34.28;10.73;;;;;;;4.83;100.00;100088.38;6287252;28;20409;-76
2024/03/01 02:48:44;;;;;;;27.42;9.98;;;;;;;4.87;100.00;100080.47;6302995;28;20048;-76
2024/03/01 02:51:45;;;;;;;30.33;11.18;;;;;;;4.86;100.00;100079.63;6290381;28;20049;-76
2024/03/01 02:54:48;;;;;;;34.78;11.55;;;;;;;4.83;100.00;100074.53;6299777;28;20140;-76
2024/03/01 02:57:51;;;;;;;35.72;12.13;;;;;;;4.78;100.00;100081.69;6303361;28;20341;-76
2024/03/01 03:00:52;;;;;;;26.15;10.32;;;;;;;4.77;100.00;100074.78;6302781;28;20348;-76
2024/03/01 03:03:53;;;;;;;30.90;9.88;;;;;;;4.75;100.00;100074.00;6302805;28;20044;-76
2024/03/01 03:06:55;;;;;;;29.83;11.48;;;;;;;4.71;100.00;100067.22;6303218;28;20344;-76
2024/03/01 03:09:59;;;;;;;27.85;11.10;;;;;;;4.67;100.00;100063.03;6302376;28;20056;-76
2024/03/01 03:13:02;;;;;;;28.42;10.68;;;;;;;4.68;100.00;100062.13;6284108;28;20107;-76
2024/03/01 03:16:03;;;;;;;29.77;11.18;;;;;;;4.67;100.00;100061.28;6283591;28;20056;-76
2024/03/01 03:19:04;;;;;;;25.55;9.75;;;;;;;4.66;100.00;100066.56;6284976;28;20053;-76
2024/03/01 03:22:08;;;;;;;36.10;12.23;;;;;;;4.69;100.00;100058.63;6288677;28;20052;-76
2024/03/01 03:25:12;;;;;;;32.25;11.20;;;;;;;4.73;100.00;100057.59;6294160;28;20048;-76
2024/03/01 03:28:14;;;;;;;24.85;10.43;;;;;;;4.72;100.00;100058.47;6302363;28;20052;-75
2024/03/01 03:31:17;;;;;;;34.50;11.45;;;;;;;4.75;100.00;100059.22;6285855;28;20186;-76
2024/03/01 03:34:18;;;;;;;37.13;12.23;;;;;;;4.72;100.00;100050.69;6261723;28;20349;-76
2024/03/01 03:37:20;;;;;;;39.33;12.48;;;;;;;4.68;100.00;100052.59;6277459;28;20358;-76
2024/03/01 03:40:23;;;;;;;32.75;11.75;;;;;;;4.69;100.00;100053.44;6276334;28;20044;-76
2024/03/01 03:43:24;;;;;;;30.00;11.27;;;;;;;4.67;100.00;100055.22;6272529;28;20044;-76
2024/03/01 03:46:26;;;;;;;30.25;11.15;;;;;;;4.68;100.00;100057.78;6276234;28;20433;-76
2024/03/01 03:49:27;;;;;;;29.20;12.25;;;;;;;4.72;100.00;100053.28;6275923;28;20059;-78
2024/03/01 03:52:28;;;;;;;31.38;11.90;;;;;;;4.74;100.00;100067.94;6276279;28;20052;-77
2024/03/01 03:55:31;;;;;;;30.83;11.93;;;;;;;4.83;100.00;100058.91;6276728;28;20124;-77
2024/03/01 03:58:32;;;;;;;36.80;12.35;;;;;;;4.79;100.00;100071.19;6276329;28;20056;-77
2024/03/01 04:01:34;;;;;;;32.10;12.05;;;;;;;4.78;100.00;100066.91;6276388;28;20115;-77
2024/03/01 04:04:35;;;;;;;26.95;10.10;;;;;;;4.65;100.00;100057.91;6276119;28;20122;-77
2024/03/01 04:07:37;;;;;;;37.08;13.10;;;;;;;4.62;100.00;100065.81;6276694;28;20437;-77
2024/03/01 04:10:39;;;;;;;29.42;11.85;;;;;;;4.65;100.00;100062.25;6276012;28;20413;-77
2024/03/01 04:13:41;;;;;;;35.05;11.13;;;;;;;4.66;100.00;100061.34;6276377;28;20045;-77
2024/03/01 04:16:42;;;;;;;33.30;11.80;;;;;;;4.72;100.00;100064.53;6276280;28;20056;-77
2024/03/01 04:19:43;;;;;;;34.90;12.57;;;;;;;4.76;100.00;100049.66;6275736;28;20458;-77
2024/03/01 04:22:45;;;;;;;34.83;12.60;;;;;;;4.73;100.00;100055.84;6276363;28;20041;-77
2024/03/01 04:25:51;;;;;;;34.75;13.02;;;;;;;4.71;100.00;100051.59;6275872;28;20041;-77
2024/03/01 04:28:52;;;;;;;32.35;11.27;;;;;;;4.65;100.00;100054.44;6275833;28;20049;-78
2024/03/01 04:31:53;;;;;;;35.47;11.27;;;;;;;4.65;100.00;100062.25;6275918;28;20048;-77
2024/03/01 04:34:55;;;;;;;33.45;12.15;;;;;;;4.64;100.00;100063.19;6276217;28;20449;-77
2024/03/01 04:37:56;;;;;;;33.80;12.70;;;;;;;4.68;100.00;100056.91;6274437;28;20049;-77
2024/03/01 04:40:59;;;;;;;31.33;11.93;;;;;;;4.61;100.00;100056.31;6258415;28;20060;-77
2024/03/01 04:44:00;;;;;;;33.05;12.65;;;;;;;4.64;100.00;100065.78;6258865;28;20076;-77
2024/03/01 04:47:02;;;;;;;34.38;11.57;;;;;;;4.64;100.00;100055.38;6250630;28;20045;-77
2024/03/01 04:50:05;;;;;;;38.22;13.98;;;;;;;4.67;100.00;100052.63;6250299;28;20053;-77
2024/03/01 04:53:07;;;;;;;30.60;12.30;;;;;;;4.69;100.00;100045.63;6258785;28;20191;-77
2024/03/01 04:56:10;;;;;;;40.97;11.60;;;;;;;4.80;100.00;100041.66;6250613;28;20050;-77
2024/03/01 04:59:11;;;;;;;31.15;11.32;;;;;;;4.89;100.00;100043.03;6274757;28;20045;-78
2024/03/01 05:02:13;;;;;;;37.55;13.23;;;;;;;4.89;100.00;100047.41;6275206;28;20045;-77
2024/03/01 05:05:14;;;;;;;36.42;13.63;;;;;;;4.91;100.00;100043.00;6274988;28;20052;-77
2024/03/01 05:08:17;;;;;;;32.38;12.27;;;;;;;4.92;100.00;100047.28;6275001;28;20080;-77
2024/03/01 05:11:21;;;;;;;34.60;12.05;;;;;;;4.89;100.00;100035.22;6275091;28;20060;-78
2024/03/01 05:14:22;;;;;;;33.90;12.55;;;;;;;4.86;100.00;100031.91;6275084;28;20052;-75
2024/03/01 05:17:24;;;;;;;35.20;11.45;;;;;;;4.84;100.00;100025.00;6275143;28;20075;-76
2024/03/01 05:20:25;;;;;;;28.90;11.73;;;;;;;4.87;100.00;100031.84;6274606;28;20437;-75
2024/03/01 05:23:26;;;;;;;30.58;11.98;;;;;;;4.90;100.00;100033.47;6275052;28;20049;-75
2024/03/01 05:26:30;;;;;;;34.20;12.82;;;;;;;4.93;100.00;100039.41;6274593;28;20090;-76
2024/03/01 05:29:31;;;;;;;28.45;12.20;;;;;;;5.02;100.00;100038.16;6274694;28;20107;-77
2024/03/01 05:32:32;;;;;;;31.77;11.40;;;;;;;5.15;100.00;100046.31;6271987;28;20046;-77
2024/03/01 05:35:34;;;;;;;29.48;11.60;;;;;;;5.23;100.00;100039.03;6257476;28;20620;-77
2024/03/01 05:38:35;;;;;;;41.13;13.13;;;;;;;5.31;100.00;100026.50;6252505;28;20045;-77
2024/03/01 05:41:38;;;;;;;27.60;10.40;;;;;;;5.34;100.00;100037.63;6262373;28;20445;-77
2024/03/01 05:44:39;;;;;;;35.33;13.00;;;;;;;5.33;100.00;100054.19;6260960;28;20041;-77
2024/03/01 05:47:42;;;;;;;26.40;11.20;;;;;;;5.31;100.00;100049.94;6258179;28;20046;-74
2024/03/01 05:50:44;;;;;;;27.35;10.15;;;;;;;5.29;100.00;100049.19;6270167;28;20049;-75
2024/03/01 05:53:45;;;;;;;29.30;11.70;;;;;;;5.26;100.00;100044.94;6274414;28;20052;-76
2024/03/01 05:56:48;;;;;;;33.42;13.68;;;;;;;5.18;100.00;100040.97;6274531;28;20064;-75
2024/03/01 05:59:50;;;;;;;34.80;11.73;;;;;;;5.15;100.00;100043.72;6273993;28;20045;-76
2024/03/01 06:02:52;;;;;;;38.72;12.90;;;;;;;5.16;100.00;100053.22;6274401;28;20060;-76
2024/03/01 06:05:54;;;;;;;32.47;11.77;;;;;;;5.18;100.00;100048.78;6274208;28;20049;-75
2024/03/01 06:08:55;;;;;;;36.45;12.63;;;;;;;5.12;100.00;100060.31;6274293;28;20049;-76
2024/03/01 06:11:57;;;;;;;27.63;11.82;;;;;;;5.16;100.00;100061.03;6274533;28;20426;-76
2024/03/01 06:14:59;;;;;;;32.92;12.07;;;;;;;5.18;100.00;100067.00;6280178;28;20045;-76
2024/03/01 06:18:00;;;;;;;31.15;12.38;;;;;;;5.20;100.00;100068.66;6254331;28;20048;-76
2024/03/01 06:21:02;;;;;;;35.95;12.13;;;;;;;5.14;100.00;100074.13;6254229;28;20049;-75
2024/03/01 06:24:04;;;;;;;34.53;11.43;;;;;;;5.15;100.00;100078.41;6270334;28;20053;-76
2024/03/01 06:27:06;;;;;;;40.45;12.70;;;;;;;5.23;100.00;100083.31;6285531;28;20069;-76
2024/03/01 06:30:08;;;;;;;35.97;12.32;;;;;;;5.23;100.00;100084.16;6285787;28;20072;-76
2024/03/01 06:33:11;;;;;;;32.00;10.35;;;;;;;5.24;100.00;100087.59;6279618;28;20048;-75
2024/03/01 06:36:12;;;;;;;30.25;11.85;;;;;;;5.21;100.00;100083.34;6279387;28;20053;-75
2024/03/01 06:39:14;;;;;;;34.80;11.77;;;;;;;5.24;100.00;100088.44;6269025;28;20155;-75
2024/03/01 06:42:17;;;;;;;28.42;10.80;;;;;;;5.29;100.00;100088.25;6268778;28;20052;-76
2024/03/01 06:45:19;;;;;;;34.75;11.65;;;;;;;5.32;100.00;100090.75;6270359;28;20083;-75
2024/03/01 06:48:21;;;;;;;37.70;12.95;;;;;;;5.35;100.00;100104.47;6265380;28;20053;-76
2024/03/01 06:51:22;;;;;;;32.72;12.48;;;;;;;5.38;100.00;100100.91;6260690;28;20054;-76
2024/03/01 06:54:23;;;;;;;34.28;12.90;;;;;;;5.40;100.00;100095.59;6253299;28;20049;-76
2024/03/01 06:57:26;;;;;;;38.30;12.75;;;;;;;5.45;100.00;100101.47;6263260;28;20052;-76
2024/03/01 07:00:28;;;;;;;39.08;13.38;;;;;;;5.45;100.00;100099.72;6273085;28;20572;-76
2024/03/01 07:03:29;;;;;;;33.92;13.38;;;;;;;5.49;100.00;100103.03;6253465;28;20354;-76
2024/03/01 07:06:32;;;;;;;33.33;12.65;;;;;;;5.52;100.00;100108.13;6257648;28;20057;-76
2024/03/01 07:09:33;;;;;;;33.55;12.25;;;;;;;5.48;100.00;100110.00;6258654;28;20056;-76
2024/03/01 07:12:37;;;;;;;36.30;12.63;;;;;;;5.48;100.00;100106.56;6272197;28;20044;-76
2024/03/01 07:15:38;;;;;;;33.08;12.38;;;;;;;5.54;100.00;100108.88;6263310;28;20170;-75
2024/03/01 07:18:39;;;;;;;36.63;13.20;;;;;;;5.60;100.00;100114.69;6257523;28;20057;-76
2024/03/01 07:21:41;;;;;;;32.70;11.55;;;;;;;5.70;100.00;100116.91;6253150;28;20048;-75
2024/03/01 07:24:42;;;;;;;36.08;12.57;;;;;;;5.78;100.00;100112.22;6252589;28;20045;-75
2024/03/01 07:27:45;;;;;;;34.28;12.00;;;;;;;5.91;100.00;100109.91;6252991;28;20053;-75
2024/03/01 07:30:46;;;;;;;32.88;13.23;;;;;;;6.02;100.00;100108.53;6268584;28;20049;-75
2024/03/01 07:33:48;;;;;;;41.58;14.27;;;;;;;6.11;100.00;100112.50;6263050;28;20445;-76
2024/03/01 07:36:49;;;;;;;34.95;12.93;;;;;;;6.32;100.00;100108.09;6252847;28;20142;-75
2024/03/01 07:39:52;;;;;;;37.00;13.30;;;;;;;6.49;100.00;100096.84;6260151;28;20056;-76
2024/03/01 07:42:55;;;;;;;39.63;13.90;;;;;;;6.67;100.00;100108.19;6260659;28;20045;-75
2024/03/01 07:45:56;;;;;;;31.23;12.23;;;;;;;6.80;100.00;100110.13;6274127;28;20067;-75
2024/03/01 07:48:57;;;;;;;33.78;11.90;;;;;;;6.85;100.00;100107.28;6276835;28;20441;-75
2024/03/01 07:51:59;;;;;;;33.20;11.65;;;;;;;6.99;100.00;100110.09;6260730;28;20045;-75
2024/03/01 07:55:01;;;;;;;34.78;12.43;;;;;;;7.07;100.00;100097.50;6280151;22;20040;-77
2024/03/01 07:58:04;;;;;;;31.08;11.88;;;;;;;7.22;100.00;100087.19;6267919;28;20053;-76
2024/03/01 08:01:06;;;;;;;31.33;11.43;;;;;;;7.33;100.00;100095.38;6276253;28;20048;-76
2024/03/01 08:04:08;;;;;;;32.63;12.63;;;;;;;7.37;100.00;100102.13;6288908;28;20052;-76
2024/03/01 08:07:09;;;;;;;33.50;12.40;;;;;;;7.43;100.00;100098.34;6291432;28;20047;-76
2024/03/01 08:10:15;;;;;;;28.90;12.00;;;;;;;7.49;100.00;100104.09;6295322;28;20055;-76
2024/03/01 08:13:18;;;;;;;31.90;11.73;;;;;;;7.59;100.00;100096.66;6284160;28;20121;-77
2024/03/01 08:16:24;;;;;;;35.08;12.52;;;;;;;7.67;100.00;100091.84;6290968;28;20041;-75
2024/03/01 08:19:34;;;;;;;28.38;11.02;;;;;;;7.73;100.00;100094.16;6281925;28;20060;-77
2024/03/01 08:22:36;;;;;;;27.40;11.38;;;;;;;7.87;100.00;100085.59;6281255;28;20202;-76
2024/03/01 08:25:37;;;;;;;34.30;11.88;;;;;;;7.98;100.00;100087.63;6289001;28;20063;-77
2024/03/01 08:28:42;;;;;;;37.70;12.50;;;;;;;8.06;100.00;100088.09;6287899;28;20049;-76
2024/03/01 08:31:44;;;;;;;37.35;12.20;;;;;;;8.05;100.00;100092.47;6287603;28;20044;-76
2024/03/01 08:34:51;;;;;;;31.25;11.82;;;;;;;8.07;100.00;100095.84;6278848;28;20052;-76
2024/03/01 08:37:52;;;;;;;31.13;11.57;;;;;;;8.17;100.00;100097.97;6288857;28;20045;-77
2024/03/01 08:40:57;;;;;;;31.75;12.32;;;;;;;8.27;100.00;100107.03;6292875;28;20052;-76
2024/03/01 08:44:00;;;;;;;32.28;11.95;;;;;;;8.31;100.00;100106.78;6283055;28;20052;-78
2024/03/01 08:47:01;;;;;;;32.47;10.82;;;;;;;8.35;100.00;100112.66;6275692;28;20048;-78
2024/03/01 08:50:36;;;;;;;31.23;12.02;;;;;;;8.47;100.00;100119.91;6274270;28;20053;-78
2024/03/01 08:54:01;;;;;;;26.33;10.73;;;;;;;8.51;100.00;100115.34;6274728;28;20357;-77
2024/03/01 08:57:06;;;;;;;27.67;10.90;;;;;;;8.59;100.00;100115.78;6276223;28;20368;-77
2024/03/01 09:00:33;;;;;;;27.67;11.07;;;;;;;8.58;100.00;100111.44;6274034;28;20382;-76
2024/03/01 09:03:37;;;;;;;29.95;10.77;;;;;;;8.56;100.00;100108.91;6281906;28;20072;-76
2024/03/01 09:06:38;;;;;;;32.33;11.55;;;;;;;8.62;100.00;100107.72;6284907;28;20156;-76
2024/03/01 09:09:40;;;;;;;36.03;11.75;;;;;;;8.66;100.00;100108.41;6278909;28;20055;-76
2024/03/01 09:12:45;;;;;;;31.15;11.77;;;;;;;8.61;100.00;100112.13;6274316;28;20445;-77
2024/03/01 09:15:48;;;;;;;23.77;10.50;;;;;;;8.69;100.00;100103.00;6275051;28;20095;-77
2024/03/01 09:18:50;;;;;;;33.30;12.18;;;;;;;8.78;100.00;100102.50;6283503;28;20067;-77
2024/03/01 09:21:51;;;;;;;25.65;10.60;;;;;;;8.84;100.00;100104.75;6282788;28;20456;-78
2024/03/01 09:24:53;;;;;;;26.38;10.80;;;;;;;9.00;100.00;100104.75;6277463;28;20053;-79
2024/03/01 09:27:54;;;;;;;23.05;10.30;;;;;;;9.20;100.00;100106.22;6274040;28;20430;-78
2024/03/01 09:30:57;;;;;;;26.10;10.23;;;;;;;9.40;100.00;100113.75;6273743;28;20057;-78
2024/03/01 09:33:59;;;;;;;15.25;6.85;;;;;;;9.65;100.00;100110.53;6273991;28;20049;-77
2024/03/01 09:37:00;;;;;;;25.38;9.57;;;;;;;9.94;100.00;100108.75;6281478;28;20059;-77
2024/03/01 09:40:02;;;;;;;20.50;8.77;;;;;;;10.13;100.00;100113.75;6292054;28;20428;-77
2024/03/01 09:43:10;;;;;;;20.50;8.90;;;;;;;10.14;100.00;100112.81;6280108;28;20045;-75
2024/03/01 09:46:26;;;;;;;17.40;7.50;;;;;;;10.25;100.00;100113.00;6274662;28;20053;-75
2024/03/01 09:49:46;;;;;;;21.00;9.02;;;;;;;10.43;100.00;100113.66;6288081;28;20079;-75
2024/03/01 09:52:59;;;;;;;27.58;9.45;;;;;;;10.50;100.00;100130.72;6289419;28;20051;-77
2024/03/01 09:56:07;;;;;;;34.80;10.20;;;;;;;10.50;100.00;100135.97;6279473;28;20045;-78
2024/03/01 09:59:16;;;;;;;21.65;8.95;;;;;;;10.56;100.00;100147.88;6293278;28;20441;-76
2024/03/01 10:02:31;;;;;;;;;;;;;;;10.62;100.00;100145.69;6292427;28;20048;-76
2024/03/01 10:05:54;;;;;;;22.58;7.32;;;;;;;10.53;100.00;100143.66;6285817;28;19928;-76
2024/03/01 10:09:07;;;;;;;24.23;8.57;;;;;;;10.62;100.00;100137.81;6288757;28;20049;-77
2024/03/01 10:12:20;;;;;;;19.50;7.70;;;;;;;10.48;100.00;100148.34;6283622;28;20464;-76
2024/03/01 10:15:39;;;;;;;18.17;7.95;;;;;;;10.36;100.00;100146.50;6287070;28;20162;-76
2024/03/01 10:19:01;;;;;;;19.38;7.85;;;;;;;10.47;100.00;100154.56;6279358;28;20056;-77
2024/03/01 10:22:17;;;;;;;17.65;7.15;;;;;;;10.51;100.00;100157.84;6279867;28;20054;-76
2024/03/01 10:25:41;;;;;;;17.48;7.50;;;;;;;10.61;100.00;100158.94;6274924;28;20072;-77
2024/03/01 10:29:00;;;;;;;19.17;8.10;;;;;;;10.61;100.00;100159.78;6295697;28;20044;-77
2024/03/01 10:32:16;;;;;;;20.92;6.95;;;;;;;10.71;100.00;100167.91;6287179;28;20048;-77
2024/03/01 10:35:20;;;;;;;18.20;7.78;;;;;;;10.86;100.00;100161.72;6284581;28;20360;-77
2024/03/01 10:38:33;;;;;;;17.35;7.00;;;;;;;10.79;100.00;100167.44;6282159;28;20045;-77
2024/03/01 10:41:48;;;;;;;16.27;7.43;;;;;;;10.85;100.00;100152.13;6284839;28;20360;-77
2024/03/01 10:45:04;;;;;;;19.35;7.88;;;;;;;10.92;100.00;100158.69;6278482;28;20045;-76
2024/03/01 10:48:06;;;;;;;18.42;7.72;;;;;;;10.91;100.00;100156.16;6278461;28;20059;-76
2024/03/01 10:51:13;;;;;;;18.00;6.82;;;;;;;11.04;100.00;100153.59;6278143;28;20051;-76
2024/03/01 10:54:18;;;;;;;16.35;7.60;;;;;;;11.16;100.00;100150.13;6277734;28;20064;-76
2024/03/01 10:57:21;;;;;;;16.05;7.20;;;;;;;11.21;100.00;100147.22;6278383;28;20049;-76
2024/03/01 11:00:26;;;;;;;19.27;8.15;;;;;;;11.30;100.00;100159.75;6285522;28;20094;-76
2024/03/01 11:03:32;;;;;;;16.10;7.63;;;;;;;11.50;100.00;100169.81;6279484;28;20045;-76
2024/03/01 11:06:39;;;;;;;20.27;8.02;;;;;;;11.61;100.00;100167.31;6282957;28;20357;-76
2024/03/01 11:09:49;;;;;;;13.40;6.68;;;;;;;11.65;100.00;100168.78;6277848;28;20056;-76
2024/03/01 11:12:56;;;;;;;15.80;6.78;;;;;;;11.71;100.00;100166.69;6277835;28;20045;-76
2024/03/01 11:15:58;;;;;;;17.92;7.70;;;;;;;11.63;100.00;100161.97;6277838;28;20128;-74
2024/03/01 11:19:05;;;;;;;13.85;6.25;;;;;;;11.91;100.00;100159.16;6277264;28;20060;-76
2024/03/01 11:22:16;;;;;;;16.95;6.60;;;;;;;12.17;100.00;100153.88;6277880;28;20049;-74
2024/03/01 11:25:19;;;;;;;19.30;6.45;;;;;;;12.29;100.00;100146.91;6287856;28;20044;-77
2024/03/01 11:28:24;;;;;;;17.23;7.15;;;;;;;12.24;100.00;100156.94;6284622;28;20425;-75
2024/03/01 11:31:29;;;;;;;14.70;7.20;;;;;;;12.39;100.00;100161.13;6277435;28;20151;-77
2024/03/01 11:34:38;;;;;;;14.63;6.22;;;;;;;12.42;98.60;100155.66;6277053;28;20056;-74
2024/03/01 11:37:57;;;;;;;21.42;7.47;;;;;;;12.22;98.03;100156.19;6277507;28;20052;-76
2024/03/01 11:41:11;;;;;;;12.27;5.90;;;;;;;12.18;100.00;100166.13;6277037;28;20045;-75
2024/03/01 11:44:27;;;;;;;15.93;7.30;;;;;;;12.14;99.44;100162.00;6276880;28;20120;-75
2024/03/01 11:47:40;;;;;;;15.85;7.18;;;;;;;11.98;99.39;100161.38;6295013;28;20052;-77
2024/03/01 11:50:54;;;;;;;17.85;6.97;;;;;;;11.95;100.00;100169.50;6298591;28;20057;-76
2024/03/01 11:54:15;;;;;;;15.98;6.85;;;;;;;11.84;100.00;100173.69;6276576;28;20049;-76
2024/03/01 11:57:28;;;;;;;16.83;6.22;;;;;;;11.74;100.00;100171.75;6276775;28;20053;-76
2024/03/01 12:00:44;;;;;;;18.98;7.28;;;;;;;11.60;100.00;100176.16;6294175;28;20075;-77
2024/03/01 12:04:02;;;;;;;22.45;6.50;;;;;;;11.47;100.00;100174.44;6299484;28;20091;-76
2024/03/01 12:07:18;;;;;;;18.58;7.82;;;;;;;11.54;100.00;100165.19;6301640;28;20447;-77
2024/03/01 12:10:32;;;;;;;16.08;7.45;;;;;;;11.52;100.00;100169.72;6300643;28;20048;-76
2024/03/01 12:13:41;;;;;;;17.50;7.13;;;;;;;11.57;100.00;100164.97;6301082;28;20345;-76
2024/03/01 12:16:56;;;;;;;19.58;7.10;;;;;;;11.51;100.00;100173.28;6283603;28;20049;-76
2024/03/01 12:20:05;;;;;;;22.80;7.55;;;;;;;11.46;100.00;100173.59;6275871;28;20049;-76
2024/03/01 12:23:17;;;;;;;;;;;;;;;11.47;100.00;100180.53;6277039;28;20076;-76
2024/03/01 12:26:26;;;;;;;16.25;7.55;;;;;;;11.47;100.00;100185.81;6275782;28;19928;-76
2024/03/01 12:29:39;;;;;;;16.73;7.00;;;;;;;11.50;100.00;100188.25;6293145;28;20048;-77
2024/03/01 12:33:01;;;;;;;17.08;7.85;;;;;;;11.39;100.00;100185.47;6300659;28;20066;-76
2024/03/01 12:36:08;;;;;;;17.77;7.65;;;;;;;11.53;100.00;100189.81;6300487;28;20060;-76
2024/03/01 12:39:13;;;;;;;15.85;7.20;;;;;;;11.44;100.00;100188.63;6300419;28;20056;-76
2024/03/01 12:42:26;;;;;;;16.55;7.00;;;;;;;11.23;100.00;100188.25;6301055;28;20044;-77
2024/03/01 12:45:34;;;;;;;16.73;7.32;;;;;;;11.31;100.00;100182.47;6300281;28;20344;-78
2024/03/01 12:48:45;;;;;;;14.13;7.18;;;;;;;11.47;100.00;100174.44;6299890;28;20474;-77
2024/03/01 12:52:01;;;;;;;11.88;5.90;;;;;;;11.49;100.00;100175.16;6300776;28;20049;-76
2024/03/01 12:55:06;;;;;;;14.82;6.32;;;;;;;11.57;100.00;100168.44;6299797;28;20151;-75
2024/03/01 12:58:15;;;;;;;15.50;6.55;;;;;;;11.63;100.00;100172.47;6300428;28;20169;-76
2024/03/01 13:01:19;;;;;;;;;;;;;;;11.69;100.00;100169.44;6299555;28;20064;-76
2024/03/01 13:04:34;;;;;;;12.63;6.32;;;;;;;11.80;100.00;100168.69;6299785;28;19925;-76
2024/03/01 13:07:39;;;;;;;13.73;6.35;;;;;;;11.93;100.00;100173.06;6300602;28;20068;-74
2024/03/01 13:10:44;;;;;;;15.48;7.00;;;;;;;12.02;100.00;100161.06;6300069;28;20090;-77
2024/03/01 13:13:56;;;;;;;13.35;6.80;;;;;;;12.18;100.00;100161.69;6299941;28;20044;-76
2024/03/01 13:17:08;;;;;;;14.27;6.45;;;;;;;12.07;100.00;100171.28;6284640;28;20048;-76
2024/03/01 13:20:29;;;;;;;15.35;6.90;;;;;;;12.11;100.00;100170.94;6281254;28;20549;-75
2024/03/01 13:23:38;;;;;;;16.73;7.30;;;;;;;12.07;100.00;100172.09;6283728;28;20045;-76
2024/03/01 13:26:48;;;;;;;20.15;7.45;;;;;;;12.08;100.00;100175.59;6279878;28;20365;-73
2024/03/01 13:29:54;;;;;;;15.88;7.07;;;;;;;12.03;100.00;100173.25;6274787;28;20041;-77
2024/03/01 13:33:08;;;;;;;16.13;7.13;;;;;;;12.11;100.00;100178.84;6295841;28;20044;-76
2024/03/01 13:36:13;;;;;;;17.98;7.43;;;;;;;12.08;100.00;100175.59;6285021;28;20052;-76
2024/03/01 13:39:26;;;;;;;18.52;7.45;;;;;;;12.18;100.00;100168.75;6274410;28;20136;-76
2024/03/01 13:42:35;;;;;;;16.00;6.43;;;;;;;12.34;100.00;100165.88;6287206;28;20049;-75
2024/03/01 13:45:43;;;;;;;10.55;5.72;;;;;;;12.44;100.00;100165.16;6288176;28;20048;-75
2024/03/01 13:48:48;;;;;;;17.75;6.13;;;;;;;12.37;100.00;100168.31;6295354;28;20072;-75
2024/03/01 13:51:50;;;;;;;16.42;7.18;;;;;;;12.43;100.00;100167.88;6276802;28;20453;-75
2024/03/01 13:54:52;;;;;;;13.55;6.53;;;;;;;12.64;100.00;100171.63;6274312;23;20468;-74
2024/03/01 13:57:53;;;;;;;18.08;6.55;;;;;;;12.85;100.00;100164.00;6249841;28;20073;-74
2024/03/01 14:00:57;;;;;;;15.57;6.97;;;;;;;12.85;99.34;100157.84;6249578;28;20052;-74
2024/03/01 14:04:01;;;;;;;17.83;6.85;;;;;;;12.73;98.72;100161.38;6244504;28;20046;-74